sensor_id;sensor_type;location;lat;lon;timestamp;pressure;altitude;pressure_sealevel;temperature;humidity
61055;BME280;46939;48.940;8.258;2023-02-01T00:01:13;101175.47;;;12.94;45.14
61055;BME280;46939;48.940;8.258;2023-02-01T00:03:42;101174.25;;;12.53;45.97
61055;BME280;46939;48.940;8.258;2023-02-01T00:06:10;101162.09;;;12.73;44.99
61055;BME280;46939;48.940;8.258;2023-02-01T00:08:38;101164.84;;;12.94;44.69
61055;BME280;46939;48.940;8.258;2023-02-01T00:11:08;101162.56;;;12.91;44.17
61055;BME280;46939;48.940;8.258;2023-02-01T00:13:39;101152.72;;;13.36;43.93
61055;BME280;46939;48.940;8.258;2023-02-01T00:16:13;101148.25;;;13.07;44.17
61055;BME280;46939;48.940;8.258;2023-02-01T00:18:42;101148.16;;;13.30;44.00
61055;BME280;46939;48.940;8.258;2023-02-01T00:21:11;101145.19;;;13.40;43.74
61055;BME280;46939;48.940;8.258;2023-02-01T00:23:40;101149.97;;;13.30;43.73
61055;BME280;46939;48.940;8.258;2023-02-01T00:26:14;101137.00;;;13.78;43.08
61055;BME280;46939;48.940;8.258;2023-02-01T00:28:43;101134.53;;;13.76;43.05
61055;BME280;46939;48.940;8.258;2023-02-01T00:31:14;101123.28;;;13.59;43.30
61055;BME280;46939;48.940;8.258;2023-02-01T00:33:42;101133.38;;;12.83;44.29
61055;BME280;46939;48.940;8.258;2023-02-01T00:36:13;101135.09;;;13.35;43.94
61055;BME280;46939;48.940;8.258;2023-02-01T00:38:43;101138.19;;;12.88;45.27
61055;BME280;46939;48.940;8.258;2023-02-01T00:41:13;101140.19;;;12.86;45.21
61055;BME280;46939;48.940;8.258;2023-02-01T00:43:43;101137.44;;;13.24;44.57
61055;BME280;46939;48.940;8.258;2023-02-01T00:46:16;101142.38;;;13.27;44.39
61055;BME280;46939;48.940;8.258;2023-02-01T00:48:45;101135.75;;;13.23;44.66
61055;BME280;46939;48.940;8.258;2023-02-01T00:51:15;101130.72;;;13.13;45.24
61055;BME280;46939;48.940;8.258;2023-02-01T00:53:44;101104.06;;;13.42;44.10
61055;BME280;46939;48.940;8.258;2023-02-01T00:56:13;101103.84;;;13.08;44.73
61055;BME280;46939;48.940;8.258;2023-02-01T00:58:42;101097.09;;;13.41;44.64
61055;BME280;46939;48.940;8.258;2023-02-01T01:01:16;101101.25;;;13.29;44.72
61055;BME280;46939;48.940;8.258;2023-02-01T01:03:47;101095.31;;;12.98;45.27
61055;BME280;46939;48.940;8.258;2023-02-01T01:06:18;101109.47;;;12.68;45.80
61055;BME280;46939;48.940;8.258;2023-02-01T01:08:47;101103.41;;;12.89;45.49
61055;BME280;46939;48.940;8.258;2023-02-01T01:11:17;101102.94;;;12.71;45.68
61055;BME280;46939;48.940;8.258;2023-02-01T01:13:47;101098.06;;;13.34;44.49
61055;BME280;46939;48.940;8.258;2023-02-01T01:16:19;101109.53;;;12.60;45.81
61055;BME280;46939;48.940;8.258;2023-02-01T01:18:48;101108.72;;;13.04;45.23
61055;BME280;46939;48.940;8.258;2023-02-01T01:21:18;101113.56;;;13.15;44.60
61055;BME280;46939;48.940;8.258;2023-02-01T01:23:47;101115.78;;;12.97;44.62
61055;BME280;46939;48.940;8.258;2023-02-01T01:26:17;101113.16;;;13.33;44.21
61055;BME280;46939;48.940;8.258;2023-02-01T01:28:46;101104.69;;;12.79;45.06
61055;BME280;46939;48.940;8.258;2023-02-01T01:31:19;101112.31;;;12.67;45.57
61055;BME280;46939;48.940;8.258;2023-02-01T01:33:49;101105.56;;;13.15;44.28
61055;BME280;46939;48.940;8.258;2023-02-01T01:36:18;101118.44;;;12.97;44.71
61055;BME280;46939;48.940;8.258;2023-02-01T01:38:47;101108.03;;;13.17;44.10
61055;BME280;46939;48.940;8.258;2023-02-01T01:41:17;101109.81;;;12.95;44.43
61055;BME280;46939;48.940;8.258;2023-02-01T01:43:54;101105.16;;;12.67;45.26
61055;BME280;46939;48.940;8.258;2023-02-01T01:46:27;101103.88;;;12.78;45.28
61055;BME280;46939;48.940;8.258;2023-02-01T01:49:02;101101.47;;;12.39;45.94
61055;BME280;46939;48.940;8.258;2023-02-01T01:51:35;101093.84;;;13.10;44.92
61055;BME280;46939;48.940;8.258;2023-02-01T01:54:08;101095.81;;;12.71;45.42
61055;BME280;46939;48.940;8.258;2023-02-01T01:56:39;101085.72;;;12.97;45.23
61055;BME280;46939;48.940;8.258;2023-02-01T01:59:09;101086.63;;;13.40;44.34
61055;BME280;46939;48.940;8.258;2023-02-01T02:01:40;101082.81;;;13.13;44.61
61055;BME280;46939;48.940;8.258;2023-02-01T02:04:08;101086.81;;;12.87;45.14
61055;BME280;46939;48.940;8.258;2023-02-01T02:06:41;101088.28;;;12.90;45.15
61055;BME280;46939;48.940;8.258;2023-02-01T02:09:13;101088.59;;;13.16;44.69
61055;BME280;46939;48.940;8.258;2023-02-01T02:11:41;101083.53;;;12.56;46.16
61055;BME280;46939;48.940;8.258;2023-02-01T02:14:12;101091.31;;;12.42;46.60
61055;BME280;46939;48.940;8.258;2023-02-01T02:17:07;101085.75;;;12.14;47.06
61055;BME280;46939;48.940;8.258;2023-02-01T02:23:07;101077.19;;;12.27;46.62
61055;BME280;46939;48.940;8.258;2023-02-01T02:26:12;101075.53;;;12.11;47.17
61055;BME280;46939;48.940;8.258;2023-02-01T02:34:53;101076.84;;;12.60;45.81
61055;BME280;46939;48.940;8.258;2023-02-01T02:37:31;101074.81;;;12.32;46.57
61055;BME280;46939;48.940;8.258;2023-02-01T02:40:09;101069.75;;;12.97;45.57
61055;BME280;46939;48.940;8.258;2023-02-01T02:42:48;101069.78;;;13.18;45.06
61055;BME280;46939;48.940;8.258;2023-02-01T02:45:39;101057.50;;;13.53;44.22
61055;BME280;46939;48.940;8.258;2023-02-01T02:48:25;101064.50;;;13.82;43.67
61055;BME280;46939;48.940;8.258;2023-02-01T02:51:03;101070.34;;;13.28;44.72
61055;BME280;46939;48.940;8.258;2023-02-01T02:53:54;101084.22;;;13.09;45.52
61055;BME280;46939;48.940;8.258;2023-02-01T02:56:38;101085.63;;;12.75;45.88
61055;BME280;46939;48.940;8.258;2023-02-01T02:59:21;101080.38;;;13.11;45.15
61055;BME280;46939;48.940;8.258;2023-02-01T03:02:05;101072.63;;;13.16;44.95
61055;BME280;46939;48.940;8.258;2023-02-01T03:04:46;101066.44;;;13.46;44.46
61055;BME280;46939;48.940;8.258;2023-02-01T03:10:18;101064.91;;;13.22;45.27
61055;BME280;46939;48.940;8.258;2023-02-01T03:12:51;101058.94;;;13.34;45.00
61055;BME280;46939;48.940;8.258;2023-02-01T03:15:24;101069.91;;;13.46;44.94
61055;BME280;46939;48.940;8.258;2023-02-01T03:17:55;101051.81;;;13.20;45.64
61055;BME280;46939;48.940;8.258;2023-02-01T03:20:26;101051.59;;;13.22;45.25
61055;BME280;46939;48.940;8.258;2023-02-01T03:22:56;101055.47;;;13.55;44.49
61055;BME280;46939;48.940;8.258;2023-02-01T03:25:31;101053.56;;;12.77;46.25
61055;BME280;46939;48.940;8.258;2023-02-01T03:28:02;101047.22;;;12.48;46.35
61055;BME280;46939;48.940;8.258;2023-02-01T03:30:35;101054.00;;;13.31;44.96
61055;BME280;46939;48.940;8.258;2023-02-01T03:33:06;101034.59;;;13.37;44.73
61055;BME280;46939;48.940;8.258;2023-02-01T03:35:40;101034.00;;;12.10;47.51
61055;BME280;46939;48.940;8.258;2023-02-01T03:38:19;101041.81;;;12.56;46.75
61055;BME280;46939;48.940;8.258;2023-02-01T03:40:53;101038.63;;;13.27;45.19
61055;BME280;46939;48.940;8.258;2023-02-01T03:43:25;101034.13;;;12.76;45.28
61055;BME280;46939;48.940;8.258;2023-02-01T03:46:01;101001.72;;;13.45;44.26
61055;BME280;46939;48.940;8.258;2023-02-01T03:48:31;101017.88;;;12.86;45.89
61055;BME280;46939;48.940;8.258;2023-02-01T03:51:03;101040.09;;;12.34;46.08
61055;BME280;46939;48.940;8.258;2023-02-01T03:53:35;101036.00;;;13.33;44.49
61055;BME280;46939;48.940;8.258;2023-02-01T03:56:07;101042.09;;;13.98;43.18
61055;BME280;46939;48.940;8.258;2023-02-01T03:58:37;101043.94;;;13.27;44.39
61055;BME280;46939;48.940;8.258;2023-02-01T04:01:05;101035.31;;;13.10;44.67
61055;BME280;46939;48.940;8.258;2023-02-01T04:03:34;101048.94;;;13.22;44.79
61055;BME280;46939;48.940;8.258;2023-02-01T04:06:02;101048.94;;;13.22;45.06
61055;BME280;46939;48.940;8.258;2023-02-01T04:08:30;101032.88;;;13.30;45.34
61055;BME280;46939;48.940;8.258;2023-02-01T04:10:59;101037.22;;;13.31;45.23
61055;BME280;46939;48.940;8.258;2023-02-01T04:13:30;101039.50;;;13.55;44.78
61055;BME280;46939;48.940;8.258;2023-02-01T04:15:58;101044.75;;;13.27;45.51
61055;BME280;46939;48.940;8.258;2023-02-01T04:18:26;101052.88;;;13.62;45.11
61055;BME280;46939;48.940;8.258;2023-02-01T04:20:55;101058.69;;;13.51;44.67
61055;BME280;46939;48.940;8.258;2023-02-01T04:23:23;101054.59;;;13.12;45.65
61055;BME280;46939;48.940;8.258;2023-02-01T04:25:52;101054.19;;;13.73;44.45
61055;BME280;46939;48.940;8.258;2023-02-01T04:28:21;101058.50;;;13.74;44.16
61055;BME280;46939;48.940;8.258;2023-02-01T04:30:52;101059.25;;;13.67;44.44
61055;BME280;46939;48.940;8.258;2023-02-01T04:33:20;101066.78;;;13.64;43.93
61055;BME280;46939;48.940;8.258;2023-02-01T04:35:48;101067.25;;;12.95;45.17
61055;BME280;46939;48.940;8.258;2023-02-01T04:38:17;101054.13;;;13.08;45.33
61055;BME280;46939;48.940;8.258;2023-02-01T04:40:47;101048.03;;;12.93;45.52
61055;BME280;46939;48.940;8.258;2023-02-01T04:43:16;101044.41;;;13.15;45.80
61055;BME280;46939;48.940;8.258;2023-02-01T04:45:48;101044.34;;;12.94;46.29
61055;BME280;46939;48.940;8.258;2023-02-01T04:48:19;101040.66;;;12.95;45.78
61055;BME280;46939;48.940;8.258;2023-02-01T04:50:49;101044.84;;;12.68;46.99
61055;BME280;46939;48.940;8.258;2023-02-01T04:53:17;101057.66;;;12.64;47.62
61055;BME280;46939;48.940;8.258;2023-02-01T04:55:48;101068.59;;;12.84;47.25
61055;BME280;46939;48.940;8.258;2023-02-01T04:58:16;101067.94;;;12.67;47.30
61055;BME280;46939;48.940;8.258;2023-02-01T05:00:45;101070.22;;;12.70;47.42
61055;BME280;46939;48.940;8.258;2023-02-01T05:03:13;101074.28;;;12.66;47.25
61055;BME280;46939;48.940;8.258;2023-02-01T05:05:44;101077.28;;;12.63;47.27
61055;BME280;46939;48.940;8.258;2023-02-01T05:08:15;101063.81;;;12.35;48.43
61055;BME280;46939;48.940;8.258;2023-02-01T05:10:44;101060.53;;;12.48;48.17
61055;BME280;46939;48.940;8.258;2023-02-01T05:13:13;101065.72;;;12.86;47.40
61055;BME280;46939;48.940;8.258;2023-02-01T05:16:06;101060.41;;;13.22;46.18
61055;BME280;46939;48.940;8.258;2023-02-01T05:18:34;101068.78;;;13.19;46.48
61055;BME280;46939;48.940;8.258;2023-02-01T05:21:05;101071.44;;;12.53;47.77
61055;BME280;46939;48.940;8.258;2023-02-01T05:23:34;101071.50;;;12.89;46.76
61055;BME280;46939;48.940;8.258;2023-02-01T05:26:22;101075.09;;;12.52;47.56
61055;BME280;46939;48.940;8.258;2023-02-01T05:28:51;101082.69;;;12.70;47.18
61055;BME280;46939;48.940;8.258;2023-02-01T05:31:20;101079.97;;;13.14;46.40
61055;BME280;46939;48.940;8.258;2023-02-01T05:33:49;101075.19;;;12.44;48.04
61055;BME280;46939;48.940;8.258;2023-02-01T05:36:20;101051.75;;;12.99;46.73
61055;BME280;46939;48.940;8.258;2023-02-01T05:38:48;101047.53;;;13.04;46.43
61055;BME280;46939;48.940;8.258;2023-02-01T05:41:16;101058.25;;;13.11;46.32
61055;BME280;46939;48.940;8.258;2023-02-01T05:43:45;101057.53;;;13.60;45.21
61055;BME280;46939;48.940;8.258;2023-02-01T05:46:13;101066.72;;;13.36;45.74
61055;BME280;46939;48.940;8.258;2023-02-01T05:48:42;101060.72;;;13.70;45.01
61055;BME280;46939;48.940;8.258;2023-02-01T05:51:11;101047.78;;;13.09;45.55
61055;BME280;46939;48.940;8.258;2023-02-01T05:53:42;101055.31;;;13.63;44.82
61055;BME280;46939;48.940;8.258;2023-02-01T05:56:10;101056.03;;;13.72;44.18
61055;BME280;46939;48.940;8.258;2023-02-01T05:58:38;101055.47;;;13.19;45.27
61055;BME280;46939;48.940;8.258;2023-02-01T06:01:07;101056.09;;;13.00;45.36
61055;BME280;46939;48.940;8.258;2023-02-01T06:03:35;101053.09;;;13.67;44.80
61055;BME280;46939;48.940;8.258;2023-02-01T06:06:04;101050.34;;;13.17;45.29
61055;BME280;46939;48.940;8.258;2023-02-01T06:08:32;101044.56;;;12.78;45.60
61055;BME280;46939;48.940;8.258;2023-02-01T06:11:04;101048.81;;;13.23;45.14
61055;BME280;46939;48.940;8.258;2023-02-01T06:13:33;101054.28;;;13.86;44.21
61055;BME280;46939;48.940;8.258;2023-02-01T06:16:04;101052.91;;;13.90;44.04
61055;BME280;46939;48.940;8.258;2023-02-01T06:18:34;101047.91;;;13.37;44.47
61055;BME280;46939;48.940;8.258;2023-02-01T06:21:03;101049.25;;;13.70;44.12
61055;BME280;46939;48.940;8.258;2023-02-01T06:23:31;101050.72;;;13.72;43.82
61055;BME280;46939;48.940;8.258;2023-02-01T06:26:04;101057.34;;;13.40;44.64
61055;BME280;46939;48.940;8.258;2023-02-01T06:28:33;101056.78;;;13.08;45.58
61055;BME280;46939;48.940;8.258;2023-02-01T06:31:03;101056.59;;;13.10;45.29
61055;BME280;46939;48.940;8.258;2023-02-01T06:33:31;101073.50;;;12.87;45.86
61055;BME280;46939;48.940;8.258;2023-02-01T06:36:01;101063.75;;;13.09;45.27
61055;BME280;46939;48.940;8.258;2023-02-01T06:38:30;101058.81;;;13.42;44.63
61055;BME280;46939;48.940;8.258;2023-02-01T06:41:00;101051.50;;;13.30;44.84
61055;BME280;46939;48.940;8.258;2023-02-01T06:43:31;101067.69;;;13.28;45.75
61055;BME280;46939;48.940;8.258;2023-02-01T06:46:01;101068.91;;;13.68;44.07
61055;BME280;46939;48.940;8.258;2023-02-01T06:48:30;101067.63;;;13.43;44.51
61055;BME280;46939;48.940;8.258;2023-02-01T06:50:59;101058.97;;;13.19;45.05
61055;BME280;46939;48.940;8.258;2023-02-01T06:53:27;101056.47;;;13.54;44.17
61055;BME280;46939;48.940;8.258;2023-02-01T06:55:57;101064.72;;;13.38;44.59
61055;BME280;46939;48.940;8.258;2023-02-01T06:58:31;101062.06;;;13.81;43.70
61055;BME280;46939;48.940;8.258;2023-02-01T07:01:04;101080.88;;;13.36;44.11
61055;BME280;46939;48.940;8.258;2023-02-01T07:03:33;101097.06;;;13.05;45.30
61055;BME280;46939;48.940;8.258;2023-02-01T07:06:01;101104.03;;;13.57;43.84
61055;BME280;46939;48.940;8.258;2023-02-01T07:08:30;101103.44;;;13.62;43.75
61055;BME280;46939;48.940;8.258;2023-02-01T07:11:01;101101.72;;;13.76;43.52
61055;BME280;46939;48.940;8.258;2023-02-01T07:13:32;101100.97;;;13.39;44.37
61055;BME280;46939;48.940;8.258;2023-02-01T07:16:01;101109.91;;;12.72;45.88
61055;BME280;46939;48.940;8.258;2023-02-01T07:18:30;101110.47;;;13.48;44.21
61055;BME280;46939;48.940;8.258;2023-02-01T07:21:03;101117.38;;;11.86;47.27
61055;BME280;46939;48.940;8.258;2023-02-01T07:23:31;101118.88;;;13.15;45.56
61055;BME280;46939;48.940;8.258;2023-02-01T07:26:02;101105.78;;;13.72;43.89
61055;BME280;46939;48.940;8.258;2023-02-01T07:28:34;101099.16;;;13.25;45.02
61055;BME280;46939;48.940;8.258;2023-02-01T07:31:04;101110.47;;;13.48;44.22
61055;BME280;46939;48.940;8.258;2023-02-01T07:33:32;101107.84;;;13.33;44.57
61055;BME280;46939;48.940;8.258;2023-02-01T07:36:03;101104.78;;;12.85;45.38
61055;BME280;46939;48.940;8.258;2023-02-01T07:38:32;101097.72;;;12.63;46.17
61055;BME280;46939;48.940;8.258;2023-02-01T07:41:04;101094.78;;;12.43;46.50
61055;BME280;46939;48.940;8.258;2023-02-01T07:43:36;101089.13;;;12.61;46.00
61055;BME280;46939;48.940;8.258;2023-02-01T07:46:05;101083.72;;;13.20;45.35
61055;BME280;46939;48.940;8.258;2023-02-01T07:48:33;101096.88;;;13.07;45.11
61055;BME280;46939;48.940;8.258;2023-02-01T07:51:04;101099.25;;;13.02;45.33
61055;BME280;46939;48.940;8.258;2023-02-01T07:53:33;101101.63;;;13.62;44.21
61055;BME280;46939;48.940;8.258;2023-02-01T07:56:10;101103.13;;;12.99;45.30
61055;BME280;46939;48.940;8.258;2023-02-01T07:58:42;101095.78;;;13.01;45.36
61055;BME280;46939;48.940;8.258;2023-02-01T08:01:14;101083.06;;;13.33;45.49
61055;BME280;46939;48.940;8.258;2023-02-01T08:03:50;101088.44;;;13.54;44.85
61055;BME280;46939;48.940;8.258;2023-02-01T08:06:20;101091.25;;;13.53;44.51
61055;BME280;46939;48.940;8.258;2023-02-01T08:08:49;101092.13;;;13.53;44.58
61055;BME280;46939;48.940;8.258;2023-02-01T08:11:19;101108.56;;;12.61;45.59
61055;BME280;46939;48.940;8.258;2023-02-01T08:13:50;101119.34;;;13.04;45.83
61055;BME280;46939;48.940;8.258;2023-02-01T08:16:20;101114.22;;;13.75;44.88
61055;BME280;46939;48.940;8.258;2023-02-01T08:18:48;101112.63;;;14.02;44.13
61055;BME280;46939;48.940;8.258;2023-02-01T08:21:18;101117.19;;;13.87;44.44
61055;BME280;46939;48.940;8.258;2023-02-01T08:23:48;101114.19;;;13.32;45.31
61055;BME280;46939;48.940;8.258;2023-02-01T08:26:37;101126.84;;;13.66;44.72
61055;BME280;46939;48.940;8.258;2023-02-01T08:29:17;101115.66;;;13.35;45.12
61055;BME280;46939;48.940;8.258;2023-02-01T08:31:46;101134.09;;;13.36;45.48
61055;BME280;46939;48.940;8.258;2023-02-01T08:34:14;101133.28;;;13.36;45.41
61055;BME280;46939;48.940;8.258;2023-02-01T08:36:42;101139.53;;;13.86;44.51
61055;BME280;46939;48.940;8.258;2023-02-01T08:39:11;101138.22;;;13.39;45.23
61055;BME280;46939;48.940;8.258;2023-02-01T08:41:39;101140.72;;;13.26;45.43
61055;BME280;46939;48.940;8.258;2023-02-01T08:44:30;101139.44;;;13.79;44.50
61055;BME280;46939;48.940;8.258;2023-02-01T08:46:59;101148.38;;;13.50;44.75
61055;BME280;46939;48.940;8.258;2023-02-01T08:49:27;101154.09;;;13.32;45.52
61055;BME280;46939;48.940;8.258;2023-02-01T08:51:56;101155.84;;;13.10;45.81
61055;BME280;46939;48.940;8.258;2023-02-01T08:54:24;101145.06;;;13.48;44.94
61055;BME280;46939;48.940;8.258;2023-02-01T08:56:52;101144.00;;;13.42;45.02
61055;BME280;46939;48.940;8.258;2023-02-01T08:59:21;101150.72;;;13.09;45.69
61055;BME280;46939;48.940;8.258;2023-02-01T09:01:52;101169.25;;;13.32;45.32
61055;BME280;46939;48.940;8.258;2023-02-01T09:04:21;101161.00;;;13.27;45.56
61055;BME280;46939;48.940;8.258;2023-02-01T09:06:50;101163.25;;;13.44;45.07
61055;BME280;46939;48.940;8.258;2023-02-01T09:09:20;101166.22;;;13.71;44.83
61055;BME280;46939;48.940;8.258;2023-02-01T09:11:49;101160.31;;;13.54;45.01
61055;BME280;46939;48.940;8.258;2023-02-01T09:14:17;101175.94;;;14.00;43.99
61055;BME280;46939;48.940;8.258;2023-02-01T09:16:48;101171.44;;;13.43;44.77
61055;BME280;46939;48.940;8.258;2023-02-01T09:19:20;101172.91;;;13.16;45.29
61055;BME280;46939;48.940;8.258;2023-02-01T09:21:48;101178.41;;;12.70;46.62
61055;BME280;46939;48.940;8.258;2023-02-01T09:24:16;101170.16;;;13.39;45.55
61055;BME280;46939;48.940;8.258;2023-02-01T09:26:45;101165.63;;;13.54;44.60
61055;BME280;46939;48.940;8.258;2023-02-01T09:29:14;101176.38;;;13.82;44.46
61055;BME280;46939;48.940;8.258;2023-02-01T09:31:42;101166.59;;;13.32;45.01
61055;BME280;46939;48.940;8.258;2023-02-01T09:34:11;101161.53;;;13.73;44.61
61055;BME280;46939;48.940;8.258;2023-02-01T09:36:42;101154.34;;;14.16;43.60
61055;BME280;46939;48.940;8.258;2023-02-01T09:39:10;101153.22;;;13.83;44.28
61055;BME280;46939;48.940;8.258;2023-02-01T09:41:50;101161.41;;;13.81;43.61
61055;BME280;46939;48.940;8.258;2023-02-01T09:44:48;101153.84;;;13.63;44.16
61055;BME280;46939;48.940;8.258;2023-02-01T09:47:22;101163.22;;;13.23;45.42
61055;BME280;46939;48.940;8.258;2023-02-01T09:49:56;101163.88;;;14.04;42.83
61055;BME280;46939;48.940;8.258;2023-02-01T09:52:34;101174.78;;;14.09;42.74
61055;BME280;46939;48.940;8.258;2023-02-01T09:55:09;101178.22;;;13.82;43.57
61055;BME280;46939;48.940;8.258;2023-02-01T09:57:47;101191.69;;;13.59;43.59
61055;BME280;46939;48.940;8.258;2023-02-01T10:00:21;101189.19;;;13.93;42.83
61055;BME280;46939;48.940;8.258;2023-02-01T10:02:51;101216.19;;;13.69;43.32
61055;BME280;46939;48.940;8.258;2023-02-01T10:05:31;101210.88;;;13.54;44.00
61055;BME280;46939;48.940;8.258;2023-02-01T10:08:10;101213.66;;;13.46;44.06
61055;BME280;46939;48.940;8.258;2023-02-01T10:10:46;101234.63;;;13.71;43.73
61055;BME280;46939;48.940;8.258;2023-02-01T10:13:34;101229.72;;;14.10;42.27
61055;BME280;46939;48.940;8.258;2023-02-01T10:16:17;101231.53;;;13.23;44.29
61055;BME280;46939;48.940;8.258;2023-02-01T10:18:57;101232.72;;;14.65;41.69
61055;BME280;46939;48.940;8.258;2023-02-01T10:21:40;101228.09;;;13.73;42.95
61055;BME280;46939;48.940;8.258;2023-02-01T10:24:32;101225.91;;;13.62;43.42
61055;BME280;46939;48.940;8.258;2023-02-01T10:27:12;101220.44;;;14.71;41.73
61055;BME280;46939;48.940;8.258;2023-02-01T10:29:43;101218.22;;;14.10;42.78
61055;BME280;46939;48.940;8.258;2023-02-01T10:32:14;101221.97;;;13.94;43.25
61055;BME280;46939;48.940;8.258;2023-02-01T10:34:47;101204.78;;;14.18;42.95
61055;BME280;46939;48.940;8.258;2023-02-01T10:37:23;101204.84;;;14.25;41.92
61055;BME280;46939;48.940;8.258;2023-02-01T10:39:56;101203.22;;;14.73;41.42
61055;BME280;46939;48.940;8.258;2023-02-01T10:42:27;101199.00;;;14.57;41.44
61055;BME280;46939;48.940;8.258;2023-02-01T10:44:58;101192.72;;;13.79;42.52
61055;BME280;46939;48.940;8.258;2023-02-01T10:47:27;101198.50;;;14.04;42.84
61055;BME280;46939;48.940;8.258;2023-02-01T10:50:02;101194.91;;;14.12;42.28
61055;BME280;46939;48.940;8.258;2023-02-01T10:52:39;101207.97;;;14.07;42.85
61055;BME280;46939;48.940;8.258;2023-02-01T10:57:58;101205.78;;;14.88;41.64
61055;BME280;46939;48.940;8.258;2023-02-01T11:00:27;101206.50;;;14.75;40.83
61055;BME280;46939;48.940;8.258;2023-02-01T11:02:55;101199.31;;;14.69;40.94
61055;BME280;46939;48.940;8.258;2023-02-01T11:05:24;101206.63;;;14.39;41.98
61055;BME280;46939;48.940;8.258;2023-02-01T11:07:54;101206.56;;;14.82;41.30
61055;BME280;46939;48.940;8.258;2023-02-01T11:10:36;101193.28;;;15.30;40.23
61055;BME280;46939;48.940;8.258;2023-02-01T11:13:13;101184.59;;;15.21;40.48
61055;BME280;46939;48.940;8.258;2023-02-01T11:15:43;101175.81;;;14.86;40.61
61055;BME280;46939;48.940;8.258;2023-02-01T11:18:16;101183.88;;;15.41;40.20
61055;BME280;46939;48.940;8.258;2023-02-01T11:20:46;101175.16;;;14.77;40.60
61055;BME280;46939;48.940;8.258;2023-02-01T11:23:18;101170.78;;;14.70;41.43
61055;BME280;46939;48.940;8.258;2023-02-01T11:25:49;101159.13;;;15.12;40.50
61055;BME280;46939;48.940;8.258;2023-02-01T11:28:24;101155.94;;;14.60;40.62
61055;BME280;46939;48.940;8.258;2023-02-01T11:30:56;101147.44;;;14.78;40.75
61055;BME280;46939;48.940;8.258;2023-02-01T11:33:29;101147.66;;;14.77;40.90
61055;BME280;46939;48.940;8.258;2023-02-01T11:36:01;101145.63;;;14.51;41.38
61055;BME280;46939;48.940;8.258;2023-02-01T11:38:34;101153.75;;;14.43;41.34
61055;BME280;46939;48.940;8.258;2023-02-01T11:41:13;101148.72;;;14.54;41.05
61055;BME280;46939;48.940;8.258;2023-02-01T11:43:56;101134.66;;;14.39;41.56
61055;BME280;46939;48.940;8.258;2023-02-01T11:46:28;101138.72;;;14.98;40.66
61055;BME280;46939;48.940;8.258;2023-02-01T11:48:57;101134.19;;;14.92;40.20
61055;BME280;46939;48.940;8.258;2023-02-01T11:51:51;101133.84;;;14.67;40.69
61055;BME280;46939;48.940;8.258;2023-02-01T11:54:40;101118.97;;;15.40;39.75
61055;BME280;46939;48.940;8.258;2023-02-01T11:57:22;101128.13;;;15.85;39.06
61055;BME280;46939;48.940;8.258;2023-02-01T12:00:05;101115.88;;;15.36;40.59
61055;BME280;46939;48.940;8.258;2023-02-01T12:02:52;101131.56;;;15.53;39.15
61055;BME280;46939;48.940;8.258;2023-02-01T12:05:31;101129.91;;;15.58;39.09
61055;BME280;46939;48.940;8.258;2023-02-01T12:08:28;101125.66;;;15.91;38.84
61055;BME280;46939;48.940;8.258;2023-02-01T12:14:01;101135.47;;;15.57;39.40
61055;BME280;46939;48.940;8.258;2023-02-01T12:16:47;101127.69;;;15.75;38.79
61055;BME280;46939;48.940;8.258;2023-02-01T12:19:35;101128.47;;;15.49;39.06
61055;BME280;46939;48.940;8.258;2023-02-01T12:22:18;101124.34;;;15.47;40.00
61055;BME280;46939;48.940;8.258;2023-02-01T12:25:10;101120.59;;;15.28;40.13
61055;BME280;46939;48.940;8.258;2023-02-01T12:31:10;101117.84;;;15.76;39.02
61055;BME280;46939;48.940;8.258;2023-02-01T12:33:58;101119.28;;;15.98;38.55
61055;BME280;46939;48.940;8.258;2023-02-01T12:36:36;101106.75;;;15.99;38.46
61055;BME280;46939;48.940;8.258;2023-02-01T12:39:18;101106.97;;;15.97;38.35
61055;BME280;46939;48.940;8.258;2023-02-01T12:41:55;101103.47;;;16.17;38.22
61055;BME280;46939;48.940;8.258;2023-02-01T12:44:30;101098.13;;;15.90;38.54
61055;BME280;46939;48.940;8.258;2023-02-01T12:47:04;101103.88;;;15.74;39.39
61055;BME280;46939;48.940;8.258;2023-02-01T12:49:44;101101.63;;;15.97;38.48
61055;BME280;46939;48.940;8.258;2023-02-01T12:52:17;101104.91;;;15.73;39.42
61055;BME280;46939;48.940;8.258;2023-02-01T12:54:52;101100.25;;;15.33;39.54
61055;BME280;46939;48.940;8.258;2023-02-01T12:57:26;101105.44;;;15.48;39.17
61055;BME280;46939;48.940;8.258;2023-02-01T13:00:02;101116.56;;;15.58;39.23
61055;BME280;46939;48.940;8.258;2023-02-01T13:02:39;101111.34;;;15.37;39.12
61055;BME280;46939;48.940;8.258;2023-02-01T13:05:21;101106.81;;;15.24;39.00
61055;BME280;46939;48.940;8.258;2023-02-01T13:07:53;101109.28;;;15.32;38.95
61055;BME280;46939;48.940;8.258;2023-02-01T13:10:29;101104.00;;;14.91;39.13
61055;BME280;46939;48.940;8.258;2023-02-01T13:13:05;101095.53;;;15.22;39.13
61055;BME280;46939;48.940;8.258;2023-02-01T13:15:40;101095.03;;;14.64;39.79
61055;BME280;46939;48.940;8.258;2023-02-01T13:18:14;101089.81;;;13.93;40.27
61055;BME280;46939;48.940;8.258;2023-02-01T13:20:53;101081.28;;;15.02;38.79
61055;BME280;46939;48.940;8.258;2023-02-01T13:23:28;101075.97;;;14.67;39.81
61055;BME280;46939;48.940;8.258;2023-02-01T13:25:58;101064.91;;;15.18;38.28
61055;BME280;46939;48.940;8.258;2023-02-01T13:28:28;101065.53;;;14.09;40.20
61055;BME280;46939;48.940;8.258;2023-02-01T13:31:14;101061.25;;;14.43;39.81
61055;BME280;46939;48.940;8.258;2023-02-01T13:33:56;101051.47;;;14.85;39.32
61055;BME280;46939;48.940;8.258;2023-02-01T13:36:53;101043.69;;;14.21;39.91
61055;BME280;46939;48.940;8.258;2023-02-01T13:39:35;101034.53;;;15.19;38.74
61055;BME280;46939;48.940;8.258;2023-02-01T13:42:17;101031.41;;;14.54;39.63